Time;durP1;ratioP1;P1;durP2;ratioP2;P2;SDS_P1;SDS_P2;PMS_P1;PMS_P2;Temp;Humidity;BMP_temperature;BMP_pressure;BME280_temperature;BME280_humidity;BME280_pressure;Samples;Min_cycle;Max_cycle;Signal;HPM_P1;HPM_P2
2023/08/08 00:02:01;;;;;;;2.25;1.70;;;;;;;-145.69;73.87;52129.50;5092248;28;20441;-81
2023/08/08 00:04:27;;;;;;;2.30;1.57;;;;;;;-145.69;73.35;52119.63;5092509;28;20201;-81
2023/08/08 00:06:54;;;;;;;2.20;1.30;;;;;;;-145.69;72.38;52131.50;5092808;28;20229;-82
2023/08/08 00:09:20;;;;;;;4.27;1.40;;;;;;;-145.69;72.68;52083.97;5092090;28;20557;-81
2023/08/08 00:11:48;;;;;;;2.80;1.30;;;;;;;-145.69;73.75;52147.34;5092676;28;20255;-82
2023/08/08 00:14:15;;;;;;;4.50;1.40;;;;;;;-145.69;74.73;52135.47;5092554;28;20200;-82
2023/08/08 00:16:42;;;;;;;5.90;1.50;;;;;;;-145.69;74.12;52133.47;5092590;28;20222;-82
2023/08/08 00:19:09;;;;;;;3.37;1.50;;;;;;;-145.69;73.35;52137.44;5092786;28;20213;-81
2023/08/08 00:21:35;;;;;;;4.53;1.70;;;;;;;-145.69;72.41;52103.78;5092887;28;20225;-81
2023/08/08 00:24:02;;;;;;;3.47;1.40;;;;;;;-145.69;72.96;52127.53;5092625;28;20190;-81
2023/08/08 00:26:29;;;;;;;4.00;1.60;;;;;;;-145.69;73.59;52167.13;5093788;28;20557;-80
2023/08/08 00:28:56;;;;;;;4.73;1.40;;;;;;;-145.69;73.90;52131.50;5096131;28;20233;-81
2023/08/08 00:31:23;;;;;;;3.20;1.40;;;;;;;-145.69;74.51;52103.78;5091165;28;20202;-81
2023/08/08 00:33:49;;;;;;;4.97;1.40;;;;;;;-145.69;74.54;52151.28;5075986;28;20199;-81
2023/08/08 00:36:16;;;;;;;1.83;0.83;;;;;;;-145.69;75.11;52093.88;5093524;28;20198;-81
2023/08/08 00:38:42;;;;;;;2.60;1.20;;;;;;;-145.69;74.66;52159.22;5096203;28;20245;-81
2023/08/08 00:41:09;;;;;;;1.63;1.20;;;;;;;-145.69;74.20;52147.34;5096219;28;20210;-81
2023/08/08 00:43:35;;;;;;;3.57;1.40;;;;;;;-145.69;74.35;52119.63;5096272;28;20198;-81
2023/08/08 00:46:03;;;;;;;2.40;1.03;;;;;;;-145.69;74.18;52121.59;5096045;28;20202;-81
2023/08/08 00:48:30;;;;;;;2.77;1.40;;;;;;;-145.69;74.14;52139.41;5095725;28;20198;-81
2023/08/08 00:50:56;;;;;;;3.07;1.40;;;;;;;-145.69;74.36;52151.28;5096248;28;20194;-82
2023/08/08 00:53:25;;;;;;;2.07;1.13;;;;;;;-145.69;74.32;52135.47;5096099;28;20204;-82
2023/08/08 00:55:52;;;;;;;1.63;1.20;;;;;;;-145.69;74.17;52115.66;5094547;28;20670;-82
2023/08/08 00:58:19;;;;;;;3.87;1.63;;;;;;;-145.69;74.40;52143.38;5095951;28;20225;-82
2023/08/08 01:00:46;;;;;;;2.50;1.50;;;;;;;-145.69;74.38;52131.50;5095690;28;20198;-82
2023/08/08 01:03:13;;;;;;;1.63;1.07;;;;;;;-145.69;74.62;52137.44;5095979;28;20194;-82
2023/08/08 01:05:48;;;;;;;2.60;1.50;;;;;;;-145.69;74.44;52139.41;5095803;28;20580;-81
2023/08/08 01:08:19;;;;;;;2.43;1.20;;;;;;;-145.69;74.30;52095.84;5095266;28;20198;-81
2023/08/08 01:10:45;;;;;;;2.80;1.40;;;;;;;-145.69;74.39;52115.66;5095285;28;20209;-81
2023/08/08 01:13:17;;;;;;;1.67;1.20;;;;;;;-145.69;74.44;52107.72;5094883;28;20198;-81
2023/08/08 01:15:47;;;;;;;7.03;1.40;;;;;;;-145.69;74.28;52119.63;5094266;28;20222;-82
2023/08/08 01:18:16;;;;;;;4.40;1.50;;;;;;;-145.69;74.26;52127.53;5095649;28;20292;-81
2023/08/08 01:20:44;;;;;;;2.70;1.20;;;;;;;-145.69;74.33;52089.91;5095453;28;20224;-81
2023/08/08 01:23:15;;;;;;;4.37;1.43;;;;;;;-145.69;74.19;52155.25;5095160;28;20202;-80
2023/08/08 01:25:45;;;;;;;2.13;1.37;;;;;;;-145.69;73.70;52117.63;5095314;28;20202;-81
2023/08/08 01:28:11;;;;;;;2.10;1.30;;;;;;;-145.69;74.75;52115.66;5095358;28;20209;-81
2023/08/08 01:30:38;;;;;;;3.57;1.40;;;;;;;-145.69;74.71;52131.50;5094964;28;20205;-81
2023/08/08 01:33:06;;;;;;;4.07;1.50;;;;;;;-145.69;74.56;52113.66;5095448;28;20221;-81
2023/08/08 01:35:39;;;;;;;2.60;1.30;;;;;;;-145.69;75.13;52119.63;5095182;28;20645;-82
2023/08/08 01:38:12;;;;;;;1.83;1.23;;;;;;;-145.69;75.22;52151.28;5093908;28;20320;-82
2023/08/08 01:40:40;;;;;;;2.50;1.57;;;;;;;-145.69;75.02;52127.53;5095150;28;20210;-81
2023/08/08 01:43:09;;;;;;;3.77;1.40;;;;;;;-145.69;74.71;52103.78;5095046;28;20202;-82
2023/08/08 01:45:37;;;;;;;1.53;1.30;;;;;;;-145.69;74.92;52115.66;5095324;28;20205;-81
2023/08/08 01:48:07;;;;;;;4.20;1.37;;;;;;;-145.69;74.45;52115.66;5095042;28;20208;-82
2023/08/08 01:50:33;;;;;;;3.43;1.50;;;;;;;-145.69;74.30;52123.56;5094976;28;20538;-82
2023/08/08 01:53:00;;;;;;;5.70;1.13;;;;;;;-145.69;73.82;52107.72;5094468;28;20580;-82
2023/08/08 01:55:26;;;;;;;1.80;1.10;;;;;;;-145.69;73.70;52131.50;5095088;28;20561;-82
2023/08/08 01:57:53;;;;;;;4.70;1.20;;;;;;;-145.69;73.33;52131.50;5094544;28;20738;-83
2023/08/08 02:00:21;;;;;;;2.27;1.43;;;;;;;-145.69;73.45;52103.78;5094383;28;20197;-82
2023/08/08 02:02:47;;;;;;;2.43;1.57;;;;;;;-145.69;73.61;52115.66;5094908;28;20230;-82
2023/08/08 02:05:14;;;;;;;5.07;1.47;;;;;;;-145.69;73.96;52135.47;5094702;28;20209;-82
2023/08/08 02:07:40;;;;;;;2.30;1.37;;;;;;;-145.69;73.62;52131.50;5094288;28;20194;-82
2023/08/08 02:10:08;;;;;;;3.70;1.40;;;;;;;-145.69;73.43;52115.66;5094773;28;20205;-82
2023/08/08 02:12:34;;;;;;;1.70;1.30;;;;;;;-145.69;73.35;52089.91;5094654;28;20194;-82
2023/08/08 02:15:00;;;;;;;2.80;1.30;;;;;;;-145.69;73.11;52107.72;5094473;28;20246;-81
2023/08/08 02:17:30;;;;;;;1.43;1.20;;;;;;;-145.69;72.11;52129.50;5094296;28;20194;-82
2023/08/08 02:19:56;;;;;;;2.37;1.50;;;;;;;-145.69;70.36;52101.78;5094621;28;20202;-82
2023/08/08 02:22:23;;;;;;;2.37;1.40;;;;;;;-145.69;70.06;52083.97;5094114;28;20224;-82
2023/08/08 02:24:49;;;;;;;4.10;1.40;;;;;;;-145.69;70.08;52091.88;5094262;28;20204;-81
2023/08/08 02:27:16;;;;;;;2.53;1.37;;;;;;;-145.69;70.17;52119.63;5093974;28;20197;-84
2023/08/08 02:29:42;;;;;;;1.90;1.30;;;;;;;-145.69;70.85;52119.63;5094158;28;20201;-82
2023/08/08 02:32:09;;;;;;;4.37;1.20;;;;;;;-145.69;72.21;52117.63;5094023;28;20203;-81
2023/08/08 02:34:38;;;;;;;2.17;1.20;;;;;;;-145.69;72.37;52107.72;5094110;28;20197;-82
2023/08/08 02:37:04;;;;;;;1.37;1.10;;;;;;;-145.69;73.60;52135.47;5093901;28;20549;-82
2023/08/08 02:39:31;;;;;;;2.27;1.20;;;;;;;-145.69;72.52;52113.66;5081198;28;20241;-82
2023/08/08 02:41:57;;;;;;;2.47;1.30;;;;;;;-145.69;70.74;52107.72;5085872;28;20206;-82
2023/08/08 02:44:24;;;;;;;2.20;1.43;;;;;;;-145.69;71.67;52089.91;5094099;28;20323;-82
2023/08/08 02:46:50;;;;;;;1.93;1.33;;;;;;;-145.69;73.35;52123.56;5093910;28;20672;-82
2023/08/08 02:49:17;;;;;;;4.93;1.23;;;;;;;-145.69;72.96;52125.56;5093569;28;20202;-82
2023/08/08 02:51:44;;;;;;;2.67;1.52;;;;;;;-145.69;72.41;52145.34;5093519;28;20194;-81
2023/08/08 02:54:11;;;;;;;1.70;1.20;;;;;;;-145.69;71.39;52111.69;5093502;28;20190;-82
2023/08/08 02:56:37;;;;;;;6.13;1.70;;;;;;;-145.69;71.23;52082.00;5093325;28;20201;-80
2023/08/08 02:59:04;;;;;;;3.23;1.20;;;;;;;-145.69;71.33;52099.81;5093669;28;20252;-81
2023/08/08 03:01:30;;;;;;;4.23;1.47;;;;;;;-145.69;72.05;52091.88;5093257;28;20190;-82
2023/08/08 03:03:57;;;;;;;4.17;1.37;;;;;;;-145.69;72.22;52119.63;5093366;28;20209;-81
2023/08/08 03:06:23;;;;;;;1.47;1.30;;;;;;;-145.69;72.21;52119.63;5093377;28;20561;-82
2023/08/08 03:08:51;;;;;;;4.40;1.47;;;;;;;-145.69;71.63;52103.78;5093665;28;20206;-82
2023/08/08 03:11:17;;;;;;;3.17;1.20;;;;;;;-145.69;71.87;52127.53;5093312;28;20194;-82
2023/08/08 03:13:44;;;;;;;2.33;1.47;;;;;;;-145.69;72.42;52091.88;5093501;28;20206;-82
2023/08/08 03:16:10;;;;;;;1.50;1.40;;;;;;;-145.69;73.18;52087.94;5092945;28;20581;-82
2023/08/08 03:18:37;;;;;;;4.80;1.13;;;;;;;-145.69;73.11;52119.63;5093145;28;20229;-83
2023/08/08 03:21:03;;;;;;;5.50;1.40;;;;;;;-145.69;72.34;52131.50;5093417;28;20201;-82
2023/08/08 03:23:30;;;;;;;1.10;1.00;;;;;;;-145.69;73.05;52119.63;5092725;28;20202;-82
2023/08/08 03:25:57;;;;;;;1.90;1.53;;;;;;;-145.69;73.16;52101.78;5092803;28;20828;-82
2023/08/08 03:28:24;;;;;;;2.33;1.30;;;;;;;-145.69;73.62;52097.84;5092644;28;20669;-82
2023/08/08 03:30:50;;;;;;;2.20;1.30;;;;;;;-145.69;73.18;52123.56;5093231;28;20560;-82
2023/08/08 03:33:17;;;;;;;2.42;1.25;;;;;;;-145.69;73.72;52129.50;5093550;28;20407;-81
2023/08/08 03:35:44;;;;;;;2.30;1.20;;;;;;;-145.69;73.53;52119.63;5092987;28;20198;-82
2023/08/08 03:38:10;;;;;;;1.83;1.10;;;;;;;-145.69;73.81;52093.88;5093298;28;20266;-82
2023/08/08 03:40:37;;;;;;;3.63;1.17;;;;;;;-145.69;73.93;52117.63;5092683;28;20581;-81
2023/08/08 03:43:05;;;;;;;4.00;1.20;;;;;;;-145.69;74.26;52123.56;5092926;28;20202;-82
2023/08/08 03:45:32;;;;;;;3.03;1.30;;;;;;;-145.69;74.22;52123.56;5093038;28;20201;-82
2023/08/08 03:47:58;;;;;;;2.73;1.47;;;;;;;-145.69;74.66;52131.50;5092865;28;20556;-82
2023/08/08 03:50:25;;;;;;;2.93;1.40;;;;;;;-145.69;74.57;52123.56;5092845;28;20209;-82
2023/08/08 03:52:52;;;;;;;6.70;1.40;;;;;;;-145.69;73.97;52135.47;5091804;28;20640;-82
2023/08/08 03:55:19;;;;;;;3.87;1.50;;;;;;;-145.69;74.74;52117.63;5072762;28;20195;-81
2023/08/08 03:57:45;;;;;;;3.03;1.27;;;;;;;-145.69;74.93;52115.66;5072378;28;20202;-82
2023/08/08 04:00:14;;;;;;;2.20;1.20;;;;;;;-145.69;74.98;52139.41;5072838;28;20222;-81
2023/08/08 04:02:40;;;;;;;2.00;1.30;;;;;;;-145.69;75.00;52113.66;5075853;28;20294;-81
2023/08/08 04:05:08;;;;;;;2.13;1.20;;;;;;;-145.69;74.79;52141.41;5078491;28;20209;-82
2023/08/08 04:07:35;;;;;;;1.80;1.40;;;;;;;-145.69;77.72;52123.56;5095880;28;20433;-81
2023/08/08 04:10:01;;;;;;;6.27;1.33;;;;;;;-145.69;76.61;52115.66;5096850;28;20200;-82
2023/08/08 04:12:28;;;;;;;5.17;1.60;;;;;;;-145.69;76.21;52117.63;5096380;28;20194;-82
2023/08/08 04:14:54;;;;;;;2.63;1.27;;;;;;;-145.69;75.96;52129.50;5096694;28;20557;-82
2023/08/08 04:17:22;;;;;;;3.00;1.30;;;;;;;-145.69;77.74;52125.56;5096203;28;20432;-82
2023/08/08 04:19:49;;;;;;;3.70;1.17;;;;;;;-145.69;76.63;52105.75;5096404;28;20226;-83
2023/08/08 04:22:16;;;;;;;2.20;1.30;;;;;;;-145.69;76.43;52159.22;5096371;28;20202;-82
2023/08/08 04:24:42;;;;;;;1.90;1.40;;;;;;;-145.69;76.06;52151.28;5096395;28;20204;-81
2023/08/08 04:27:09;;;;;;;4.20;1.33;;;;;;;-145.69;76.16;52151.28;5096403;28;20534;-81
2023/08/08 04:29:37;;;;;;;2.33;1.20;;;;;;;-145.69;76.15;52111.69;5095084;28;20208;-82
2023/08/08 04:32:04;;;;;;;2.07;1.50;;;;;;;-145.69;76.25;52135.47;5095240;28;20216;-82
2023/08/08 04:34:32;;;;;;;3.53;1.30;;;;;;;-145.69;76.25;52123.56;5094529;28;20190;-82
2023/08/08 04:36:58;;;;;;;4.80;1.50;;;;;;;-145.69;76.21;52135.47;5096045;28;20194;-83
2023/08/08 04:39:25;;;;;;;2.60;1.13;;;;;;;-145.69;76.14;52149.31;5096049;28;20228;-81
2023/08/08 04:41:51;;;;;;;2.87;1.30;;;;;;;-145.69;76.26;52123.56;5085753;28;20206;-82
2023/08/08 04:44:18;;;;;;;4.33;1.60;;;;;;;-145.69;75.60;52097.84;5096252;28;20557;-82
2023/08/08 04:46:44;;;;;;;2.47;1.30;;;;;;;-145.69;73.81;52131.50;5096103;28;20201;-83
2023/08/08 04:49:11;;;;;;;3.03;1.47;;;;;;;-145.69;72.38;52109.72;5095991;28;20649;-82
2023/08/08 04:51:39;;;;;;;1.73;1.27;;;;;;;-145.69;74.44;52109.72;5095952;28;21092;-83
2023/08/08 04:54:05;;;;;;;2.10;1.37;;;;;;;-145.69;74.68;52139.41;5095776;28;20649;-82
2023/08/08 04:56:32;;;;;;;2.10;1.40;;;;;;;-145.69;75.45;52127.53;5096179;28;20194;-82
2023/08/08 04:58:58;;;;;;;4.23;1.30;;;;;;;-145.69;76.18;52117.63;5095858;28;20704;-82
2023/08/08 05:01:25;;;;;;;4.83;1.30;;;;;;;-145.69;76.15;52151.28;5096223;28;20202;-82
2023/08/08 05:03:51;;;;;;;3.37;1.67;;;;;;;-145.69;75.97;52135.47;5095973;28;20206;-82
2023/08/08 05:06:18;;;;;;;2.20;1.40;;;;;;;-145.69;75.82;52131.50;5095077;28;20202;-82
2023/08/08 05:08:46;;;;;;;6.37;1.67;;;;;;;-145.69;75.02;52147.34;5095366;28;20212;-82
2023/08/08 05:11:12;;;;;;;6.07;1.40;;;;;;;-145.69;75.23;52139.41;5095331;28;20201;-82
2023/08/08 05:13:39;;;;;;;2.77;1.63;;;;;;;-145.69;74.41;52143.38;5095624;28;20657;-83
2023/08/08 05:16:06;;;;;;;5.07;1.70;;;;;;;-145.69;73.87;52167.13;5094945;28;20269;-83
2023/08/08 05:18:32;;;;;;;4.13;1.53;;;;;;;-145.69;73.20;52143.38;5095522;28;20226;-82
2023/08/08 05:20:59;;;;;;;3.00;1.40;;;;;;;-145.69;71.85;52115.66;5095349;28;20643;-82
2023/08/08 05:23:28;;;;;;;3.73;1.53;;;;;;;-145.69;71.02;52083.97;5095265;28;20198;-82
2023/08/08 05:25:56;;;;;;;4.50;1.57;;;;;;;-145.69;71.27;52121.59;5095832;28;20194;-82
2023/08/08 05:28:23;;;;;;;6.93;1.50;;;;;;;-145.69;71.60;52107.72;5095274;28;20206;-82
2023/08/08 05:30:49;;;;;;;2.30;1.47;;;;;;;-145.69;71.46;52103.78;5095208;28;20190;-83
2023/08/08 05:33:16;;;;;;;1.53;1.27;;;;;;;-145.69;71.18;52113.66;5095844;28;20220;-83
2023/08/08 05:35:42;;;;;;;5.67;1.80;;;;;;;-145.69;71.19;52107.72;5095232;28;20248;-83
2023/08/08 05:38:09;;;;;;;2.22;1.40;;;;;;;-145.69;70.80;52115.66;5094236;28;20631;-83
2023/08/08 05:40:36;;;;;;;2.13;1.33;;;;;;;-145.69;70.09;52097.84;5095461;28;20325;-82
2023/08/08 05:43:04;;;;;;;1.90;1.53;;;;;;;-145.69;69.74;52103.78;5095623;28;20202;-83
2023/08/08 05:45:31;;;;;;;4.70;1.30;;;;;;;-145.69;69.54;52072.09;5095137;28;20407;-82
2023/08/08 05:48:00;;;;;;;3.35;1.50;;;;;;;-145.69;69.29;52091.88;5094903;28;20201;-83
2023/08/08 05:50:27;;;;;;;4.37;1.87;;;;;;;-145.69;68.66;52103.78;5095198;28;20194;-83
2023/08/08 05:52:53;;;;;;;2.75;1.40;;;;;;;-145.69;69.31;52076.03;5094561;28;20194;-83
2023/08/08 05:55:20;;;;;;;1.37;1.13;;;;;;;-145.69;69.44;52115.66;5094637;28;20202;-83
2023/08/08 05:57:46;;;;;;;2.72;1.50;;;;;;;-145.69;69.70;52107.72;5094926;28;20202;-83
2023/08/08 06:00:16;;;;;;;1.50;1.08;;;;;;;-145.69;69.44;52103.78;5094980;28;20229;-82
2023/08/08 06:02:42;;;;;;;4.18;1.30;;;;;;;-145.69;69.74;52107.72;5094661;28;20664;-83
2023/08/08 06:05:09;;;;;;;6.65;1.73;;;;;;;-145.69;69.23;52083.97;5094748;28;20210;-82
2023/08/08 06:07:36;;;;;;;1.98;1.23;;;;;;;-145.69;69.46;52083.97;5094277;28;20236;-82
2023/08/08 06:10:02;;;;;;;2.60;1.23;;;;;;;-145.69;68.78;52105.75;5094707;28;20198;-82
2023/08/08 06:12:29;;;;;;;1.80;1.23;;;;;;;-145.69;68.72;52103.78;5094570;28;20224;-84
2023/08/08 06:14:55;;;;;;;2.50;1.40;;;;;;;-145.69;68.84;52127.53;5094581;28;20202;-82
2023/08/08 06:17:24;;;;;;;1.92;1.25;;;;;;;-145.69;68.68;52064.16;5093949;28;20190;-82
2023/08/08 06:19:50;;;;;;;1.80;1.50;;;;;;;-145.69;69.24;52085.94;5093111;28;20265;-82
2023/08/08 06:22:17;;;;;;;1.65;1.40;;;;;;;-145.69;69.56;52117.63;5094240;28;20255;-82
2023/08/08 06:24:44;;;;;;;1.85;1.30;;;;;;;-145.69;68.82;52078.03;5092792;28;20198;-83
2023/08/08 06:27:11;;;;;;;4.85;1.48;;;;;;;-145.69;67.65;52115.66;5094167;28;20615;-83
2023/08/08 06:29:37;;;;;;;1.98;1.33;;;;;;;-145.69;66.50;52101.78;5094578;28;20661;-83
2023/08/08 06:32:04;;;;;;;7.20;1.40;;;;;;;-145.69;62.58;52087.94;5092829;28;20186;-83
2023/08/08 06:34:32;;;;;;;4.57;1.60;;;;;;;-145.69;61.99;52060.22;5094191;28;20198;-83
2023/08/08 06:36:59;;;;;;;1.35;1.08;;;;;;;-145.69;61.31;52062.19;5094175;28;20209;-82
2023/08/08 06:39:25;;;;;;;3.15;1.15;;;;;;;-145.69;60.56;52072.09;5094214;28;20221;-83
2023/08/08 06:41:52;;;;;;;3.65;1.30;;;;;;;-145.69;60.52;52082.00;5094247;28;20201;-82
2023/08/08 06:44:18;;;;;;;1.55;1.20;;;;;;;-145.69;59.54;52074.06;5094446;28;20205;-83
2023/08/08 06:46:45;;;;;;;2.33;1.45;;;;;;;-145.69;57.67;52056.25;5093909;28;20551;-82
2023/08/08 06:49:11;;;;;;;3.92;1.30;;;;;;;-145.69;57.20;52060.22;5091444;28;20205;-82
2023/08/08 06:51:39;;;;;;;3.72;1.20;;;;;;;-145.69;54.86;52060.22;5094142;28;20202;-82
2023/08/08 06:54:06;;;;;;;1.90;0.93;;;;;;;-145.69;55.02;52032.47;5094430;28;20198;-82
2023/08/08 06:56:32;;;;;;;1.60;1.02;;;;;;;-145.69;55.31;52038.44;5093884;28;20530;-82
2023/08/08 06:58:58;;;;;;;1.95;1.13;;;;;;;-145.69;56.71;52087.94;5093677;28;20565;-82
2023/08/08 07:01:25;;;;;;;2.45;1.15;;;;;;;-145.69;54.38;52056.25;5093492;28;20198;-82
2023/08/08 07:03:51;;;;;;;2.13;1.10;;;;;;;-145.69;55.37;52056.25;5072909;28;20441;-82
2023/08/08 07:06:19;;;;;;;1.83;1.10;;;;;;;-145.69;54.49;52052.28;5082973;28;20205;-82
2023/08/08 07:08:47;;;;;;;2.95;1.10;;;;;;;-145.69;52.21;52060.22;5093594;28;20198;-83
2023/08/08 07:11:13;;;;;;;2.97;0.95;;;;;;;-145.69;50.67;52050.31;5093539;28;20195;-82
2023/08/08 07:13:40;;;;;;;1.77;0.93;;;;;;;-145.69;50.30;52036.44;5093340;28;20194;-82
2023/08/08 07:16:06;;;;;;;3.05;1.27;;;;;;;-145.69;49.42;52036.44;5093177;28;20232;-82
2023/08/08 07:18:32;;;;;;;5.30;1.25;;;;;;;-145.69;48.72;52062.19;5093965;28;20691;-82
2023/08/08 07:20:59;;;;;;;3.38;1.10;;;;;;;-145.69;49.46;52042.38;5092946;28;20608;-82
2023/08/08 07:23:25;;;;;;;1.52;1.08;;;;;;;-145.69;49.73;52064.16;5093577;28;20198;-82
2023/08/08 07:25:53;;;;;;;3.33;1.27;;;;;;;-145.69;49.66;52040.41;5093577;28;20202;-82
2023/08/08 07:28:20;;;;;;;2.17;1.00;;;;;;;-145.69;49.99;52050.31;5093160;28;20579;-83
2023/08/08 07:30:46;;;;;;;5.22;1.23;;;;;;;-145.69;49.86;52040.41;5093846;28;20209;-83
2023/08/08 07:33:14;;;;;;;4.65;1.75;;;;;;;-145.69;48.18;52054.25;5093233;28;20202;-82
2023/08/08 07:35:40;;;;;;;4.03;1.05;;;;;;;-145.69;47.03;52008.72;5092693;28;20285;-82
2023/08/08 07:38:07;;;;;;;1.80;0.90;;;;;;;-145.69;46.85;52024.56;5092925;28;20530;-82
2023/08/08 07:40:33;;;;;;;2.25;1.20;;;;;;;-145.69;46.28;52000.81;5092993;28;20226;-81
2023/08/08 07:43:01;;;;;;;7.45;1.38;;;;;;;-145.69;46.50;52032.47;5093364;28;20204;-82
2023/08/08 07:45:28;;;;;;;1.35;1.00;;;;;;;-145.69;45.40;52020.59;5093823;28;20553;-83
2023/08/08 07:47:54;;;;;;;3.30;1.30;;;;;;;-145.69;45.54;52032.47;5093535;28;20205;-83
2023/08/08 07:50:21;;;;;;;3.17;1.17;;;;;;;-145.69;45.01;52016.66;5093463;28;20285;-83
2023/08/08 07:52:47;;;;;;;2.70;1.15;;;;;;;-145.69;45.36;52028.53;5092979;28;20194;-84
2023/08/08 07:55:14;;;;;;;3.22;1.17;;;;;;;-145.69;46.74;52012.69;5093675;28;20202;-81
2023/08/08 07:57:40;;;;;;;7.50;1.30;;;;;;;-145.69;45.87;52018.63;5093530;28;20206;-83
2023/08/08 08:00:11;;;;;;;2.72;1.20;;;;;;;-145.69;45.94;52020.59;5092918;28;20230;-84
2023/08/08 08:02:38;;;;;;;2.35;1.10;;;;;;;-145.69;46.18;52032.47;5092283;28;20666;-83
2023/08/08 08:05:07;;;;;;;4.72;1.42;;;;;;;-145.69;45.62;52012.69;5092915;28;20552;-83
2023/08/08 08:07:34;;;;;;;2.53;1.20;;;;;;;-145.69;46.64;52014.66;5089426;28;20208;-84
2023/08/08 08:10:01;;;;;;;2.00;1.10;;;;;;;-145.69;46.19;52012.69;5092579;28;20212;-83
2023/08/08 08:12:27;;;;;;;6.60;1.42;;;;;;;-145.69;45.25;52020.59;5092542;28;20198;-81
2023/08/08 08:14:54;;;;;;;8.40;1.88;;;;;;;-145.69;43.06;52004.75;5092745;28;20214;-82
2023/08/08 08:17:22;;;;;;;7.05;1.90;;;;;;;-145.69;42.18;51981.00;5092617;28;20197;-81
2023/08/08 08:19:48;;;;;;;5.40;1.55;;;;;;;-145.69;42.77;51979.03;5092555;28;20224;-83
2023/08/08 08:22:15;;;;;;;4.28;1.15;;;;;;;-145.69;41.96;52004.75;5092391;28;20657;-84
2023/08/08 08:24:41;;;;;;;9.57;1.60;;;;;;;-145.69;41.90;51981.00;5091059;28;20194;-83
2023/08/08 08:27:08;;;;;;;6.20;1.38;;;;;;;-145.69;43.48;51992.88;5092467;28;20273;-84
2023/08/08 08:29:34;;;;;;;8.25;2.20;;;;;;;-145.69;41.53;51977.03;5092972;28;20206;-84
2023/08/08 08:32:01;;;;;;;4.10;1.63;;;;;;;-145.69;42.69;51982.97;5092896;28;20206;-85
2023/08/08 08:34:29;;;;;;;2.65;1.15;;;;;;;-145.69;41.98;51981.00;5093108;28;20198;-84
2023/08/08 08:36:55;;;;;;;1.52;1.00;;;;;;;-145.69;40.93;51961.19;5092249;28;20676;-83
2023/08/08 08:39:22;;;;;;;1.30;0.85;;;;;;;-145.69;41.59;51992.88;5091585;28;20194;-84
2023/08/08 08:41:52;;;;;;;1.88;0.95;;;;;;;-145.69;42.01;51984.97;5092389;28;20194;-81
2023/08/08 08:44:22;;;;;;;1.60;1.10;;;;;;;-145.69;40.96;51984.97;5092911;28;20202;-83
2023/08/08 08:46:52;;;;;;;3.15;1.00;;;;;;;-145.69;41.86;51965.16;5093304;28;20198;-84
2023/08/08 08:49:19;;;;;;;1.10;0.90;;;;;;;-145.69;41.27;51975.06;5096584;28;20198;-82
2023/08/08 08:51:47;;;;;;;1.35;1.00;;;;;;;-145.69;40.65;51971.09;5096432;28;20201;-84
2023/08/08 08:54:14;;;;;;;1.70;1.00;;;;;;;-145.69;39.82;51955.25;5094787;28;20195;-82
2023/08/08 08:56:41;;;;;;;5.18;1.20;;;;;;;-145.69;41.34;51955.25;5096918;28;20645;-83
2023/08/08 08:59:08;;;;;;;4.40;1.08;;;;;;;-145.69;40.42;51945.34;5096485;28;20202;-83
2023/08/08 09:01:35;;;;;;;1.15;1.00;;;;;;;-145.69;39.09;51957.25;5096309;28;20245;-83
2023/08/08 09:04:04;;;;;;;1.30;0.90;;;;;;;-145.69;39.80;51941.41;5096405;28;20209;-83
2023/08/08 09:06:31;;;;;;;1.95;0.90;;;;;;;-145.69;39.09;51927.53;5096187;28;20212;-84
2023/08/08 09:08:58;;;;;;;2.53;1.42;;;;;;;-145.69;38.42;51897.84;5096570;28;20201;-83
2023/08/08 09:11:25;;;;;;;1.38;0.80;;;;;;;-145.69;38.34;51915.66;5096597;28;20213;-85
2023/08/08 09:13:52;;;;;;;1.25;0.77;;;;;;;-145.69;38.32;51933.47;5096110;28;20213;-84
2023/08/08 09:16:18;;;;;;;2.28;1.00;;;;;;;-145.69;37.68;51917.63;5095707;28;20229;-83
2023/08/08 09:18:45;;;;;;;4.65;0.90;;;;;;;-145.69;37.74;51937.44;5096341;28;20194;-83
2023/08/08 09:21:11;;;;;;;2.97;1.17;;;;;;;-145.69;37.80;51933.47;5096094;28;20229;-84
2023/08/08 09:23:38;;;;;;;4.63;1.20;;;;;;;-145.69;37.59;51935.47;5095991;28;20205;-84
2023/08/08 09:26:06;;;;;;;3.72;1.10;;;;;;;-145.69;36.75;51937.44;5095626;28;20244;-84
2023/08/08 09:28:33;;;;;;;2.67;0.95;;;;;;;-145.69;37.07;51935.47;5096071;28;20282;-85
2023/08/08 09:30:59;;;;;;;2.72;0.95;;;;;;;-145.69;38.00;51953.28;5095802;28;20201;-84
2023/08/08 09:33:29;;;;;;;2.38;1.00;;;;;;;-145.69;37.25;51933.47;5095570;28;20204;-83
2023/08/08 09:35:56;;;;;;;1.60;0.80;;;;;;;-145.69;37.72;51945.34;5095636;28;20202;-81
2023/08/08 09:38:22;;;;;;;1.90;1.10;;;;;;;-145.69;37.80;51939.41;5095993;28;20206;-84
2023/08/08 09:40:50;;;;;;;2.13;0.80;;;;;;;-145.69;38.50;51919.63;5095164;28;20229;-85
2023/08/08 09:43:18;;;;;;;2.28;1.00;;;;;;;-145.69;37.47;51937.44;5095497;28;20206;-84
2023/08/08 09:45:45;;;;;;;1.45;0.90;;;;;;;-145.69;37.88;51923.56;5094701;28;20197;-84
2023/08/08 09:48:11;;;;;;;2.38;1.02;;;;;;;-145.69;35.82;51889.91;5094478;28;20194;-83
2023/08/08 09:50:38;;;;;;;3.17;1.10;;;;;;;-145.69;36.72;51909.72;5095438;28;20198;-84
2023/08/08 09:53:05;;;;;;;4.05;1.27;;;;;;;-145.69;35.98;51909.72;5094763;28;20186;-84
2023/08/08 09:55:33;;;;;;;2.13;0.75;;;;;;;-145.69;37.26;51937.44;5095346;28;20205;-82
2023/08/08 09:58:03;;;;;;;1.23;0.90;;;;;;;-145.69;37.82;51969.13;5094641;28;20688;-84
2023/08/08 10:00:34;;;;;;;2.38;1.05;;;;;;;-145.69;37.91;51925.56;5094076;28;20550;-84
2023/08/08 10:03:01;;;;;;;2.50;0.95;;;;;;;-145.69;38.50;51933.47;5095226;28;20281;-84
2023/08/08 10:05:28;;;;;;;1.77;1.08;;;;;;;-145.69;37.75;51913.69;5095449;28;20202;-83
2023/08/08 10:07:56;;;;;;;4.18;1.20;;;;;;;-145.69;38.89;51929.50;5094882;28;20216;-82
2023/08/08 10:10:23;;;;;;;2.85;1.00;;;;;;;-145.69;36.65;51961.19;5094608;28;20232;-84
2023/08/08 10:12:50;;;;;;;4.90;1.27;;;;;;;-145.69;37.65;51937.44;5095436;28;20205;-84
2023/08/08 10:15:16;;;;;;;2.60;0.90;;;;;;;-145.69;37.56;51923.56;5094621;28;20226;-83
2023/08/08 10:17:44;;;;;;;3.25;0.90;;;;;;;-145.69;36.63;51977.03;5095115;28;20799;-82
2023/08/08 10:20:12;;;;;;;1.92;0.93;;;;;;;-145.69;36.96;51949.31;5094557;28;20230;-85
2023/08/08 10:22:46;;;;;;;1.60;0.80;;;;;;;-145.69;36.34;51941.41;5094670;28;20202;-83
2023/08/08 10:25:26;;;;;;;0.80;0.60;;;;;;;-145.69;35.47;51917.63;5095558;28;20202;-83
2023/08/08 10:28:03;;;;;;;3.10;1.20;;;;;;;-145.69;36.25;51911.69;5095185;28;20204;-83
2023/08/08 10:30:30;;;;;;;3.03;0.90;;;;;;;-145.69;34.77;51925.56;5094187;28;20280;-84
2023/08/08 10:33:01;;;;;;;4.28;0.90;;;;;;;-145.69;35.36;51911.69;5094658;28;20198;-82
2023/08/08 10:35:37;;;;;;;3.22;0.90;;;;;;;-145.69;37.67;51923.56;5094467;28;20206;-84
2023/08/08 10:38:13;;;;;;;2.90;0.80;;;;;;;-145.69;35.38;51943.38;5093156;28;20225;-84
2023/08/08 10:40:44;;;;;;;5.13;1.00;;;;;;;-145.69;36.92;51897.84;5094865;28;20308;-85
2023/08/08 10:43:14;;;;;;;2.00;0.80;;;;;;;-145.69;36.52;51945.34;5094369;28;20294;-84
2023/08/08 10:45:44;;;;;;;3.45;0.90;;;;;;;-145.69;37.37;51933.47;5094542;28;20194;-84
2023/08/08 10:48:13;;;;;;;1.38;0.80;;;;;;;-145.69;36.19;51897.84;5093773;28;20201;-84
2023/08/08 10:50:41;;;;;;;1.55;0.95;;;;;;;-145.69;35.00;51885.94;5093596;28;20661;-83
2023/08/08 10:53:10;;;;;;;2.80;0.95;;;;;;;-145.69;35.80;51901.78;5094005;28;20676;-83
2023/08/08 10:55:37;;;;;;;3.85;1.10;;;;;;;-145.69;34.59;51874.06;5094350;28;20202;-84
2023/08/08 10:58:07;;;;;;;2.15;0.90;;;;;;;-145.69;33.11;51870.13;5094787;28;20628;-84
2023/08/08 11:00:35;;;;;;;2.88;0.90;;;;;;;-145.69;33.34;51878.03;5094281;28;20233;-84
2023/08/08 11:03:04;;;;;;;3.10;1.00;;;;;;;-145.69;33.05;51915.66;5093761;28;20251;-82
2023/08/08 11:05:33;;;;;;;1.38;0.93;;;;;;;-145.69;33.50;51927.53;5091091;28;20710;-85
2023/08/08 11:08:01;;;;;;;2.25;0.80;;;;;;;-145.69;33.94;51905.75;5094167;28;20644;-84
2023/08/08 11:10:31;;;;;;;2.58;0.82;;;;;;;-145.69;34.37;51882.00;5093912;28;20601;-84
2023/08/08 11:12:59;;;;;;;1.00;0.90;;;;;;;-145.69;33.84;51862.19;5093180;28;20197;-83
2023/08/08 11:15:28;;;;;;;6.72;0.90;;;;;;;-145.69;32.95;51860.22;5093476;28;20658;-84
2023/08/08 11:17:59;;;;;;;1.92;0.90;;;;;;;-145.69;32.46;51882.00;5093023;28;20194;-83